createdAt,value
2017-04-21T00:00:38.756Z,8.71
2017-04-21T00:01:49.992Z,8.76
2017-04-21T00:03:01.072Z,8.76
2017-04-21T00:04:12.099Z,8.71
2017-04-21T00:05:23.327Z,8.69
2017-04-21T00:06:34.749Z,8.74
2017-04-21T00:07:45.778Z,8.71
2017-04-21T00:08:56.798Z,8.69
2017-04-21T00:10:07.830Z,8.77
2017-04-21T00:11:18.869Z,8.67
2017-04-21T00:12:30.105Z,8.71
2017-04-21T00:13:41.155Z,8.64
2017-04-21T00:14:52.182Z,8.62
2017-04-21T00:16:03.211Z,8.67
2017-04-21T00:17:14.250Z,8.65
2017-04-21T00:18:25.335Z,8.62
2017-04-21T00:19:36.370Z,8.64
2017-04-21T00:20:47.400Z,8.57
2017-04-21T00:21:58.820Z,8.5
2017-04-21T00:23:09.842Z,8.61
2017-04-21T00:24:21.458Z,8.57
2017-04-21T00:25:32.496Z,8.58
2017-04-21T00:26:43.512Z,8.44
2017-04-21T00:27:54.530Z,8.43
2017-04-21T00:29:05.560Z,8.44
2017-04-21T00:30:16.794Z,8.44
2017-04-21T00:31:28.029Z,8.44
2017-04-21T00:32:39.054Z,8.43
2017-04-21T00:33:50.092Z,8.4
2017-04-21T00:35:01.180Z,8.35
2017-04-21T00:36:12.408Z,8.31
2017-04-21T00:37:23.443Z,8.4
2017-04-21T00:38:34.676Z,8.34
2017-04-21T00:39:45.716Z,8.43
2017-04-21T00:40:56.744Z,8.31
2017-04-21T00:42:07.768Z,8.35
2017-04-21T00:43:18.808Z,8.36
2017-04-21T00:44:29.885Z,8.35
2017-04-21T00:45:40.909Z,8.39
2017-04-21T00:46:51.933Z,8.35
2017-04-21T00:48:02.958Z,8.4
2017-04-21T00:49:13.988Z,8.34
2017-04-21T00:50:25.697Z,8.35
2017-04-21T00:51:36.721Z,8.22
2017-04-21T00:52:48.003Z,8.19
2017-04-21T00:53:59.035Z,8.14
2017-04-21T00:55:10.049Z,8.14
2017-04-21T00:56:21.069Z,7.96
2017-04-21T00:57:32.101Z,7.93
2017-04-21T00:58:43.137Z,7.93
2017-04-21T00:59:54.421Z,7.91
2017-04-21T01:01:05.457Z,7.83
2017-04-21T01:02:16.487Z,7.77
2017-04-21T01:03:27.514Z,7.82
2017-04-21T01:04:38.547Z,7.77
2017-04-21T01:05:49.777Z,7.85
2017-04-21T01:07:00.802Z,7.8
2017-04-21T01:08:11.825Z,7.8
2017-04-21T01:09:22.846Z,7.82
2017-04-21T01:10:34.077Z,7.77
2017-04-21T01:11:45.094Z,7.82
2017-04-21T01:12:56.127Z,7.77
2017-04-21T01:14:07.164Z,7.78
2017-04-21T01:15:18.180Z,7.91
2017-04-21T01:16:29.221Z,7.91
2017-04-21T01:17:40.350Z,7.8
2017-04-21T01:18:51.518Z,7.83
2017-04-21T01:20:02.842Z,7.77
2017-04-21T01:21:14.099Z,7.8
2017-04-21T01:22:25.131Z,7.83
2017-04-21T01:23:36.160Z,7.88
2017-04-21T01:24:47.402Z,7.86
2017-04-21T01:25:58.445Z,7.86
2017-04-21T01:27:09.680Z,7.86
2017-04-21T01:28:20.704Z,7.93
2017-04-21T01:29:31.733Z,7.8
2017-04-21T01:30:42.762Z,7.86
2017-04-21T01:31:53.779Z,7.88
2017-04-21T01:33:04.817Z,7.86
2017-04-21T01:34:16.055Z,7.78
2017-04-21T01:35:27.089Z,7.86
2017-04-21T01:36:38.176Z,7.75
2017-04-21T01:37:49.207Z,7.75
2017-04-21T01:39:00.230Z,7.83
2017-04-21T01:40:11.264Z,7.83
2017-04-21T01:41:22.302Z,7.73
2017-04-21T01:42:33.335Z,7.73
2017-04-21T01:43:44.367Z,7.73
2017-04-21T01:44:55.674Z,7.71
2017-04-21T01:46:07.288Z,7.64
2017-04-21T01:47:18.514Z,7.59
2017-04-21T01:48:29.544Z,7.56
2017-04-21T01:49:40.574Z,7.58
2017-04-21T01:50:51.602Z,7.63
2017-04-21T01:52:02.819Z,7.54
2017-04-21T01:53:13.837Z,7.49
2017-04-21T01:54:25.081Z,7.58
2017-04-21T01:55:36.115Z,7.59
2017-04-21T01:56:47.147Z,7.47
2017-04-21T01:57:58.195Z,7.45
2017-04-21T01:59:09.239Z,7.39
2017-04-21T02:00:20.263Z,7.37
2017-04-21T02:01:31.291Z,7.39
2017-04-21T02:02:42.312Z,7.37
2017-04-21T02:03:53.540Z,7.44
2017-04-21T02:05:04.782Z,7.37
2017-04-21T02:06:15.863Z,7.36
2017-04-21T02:07:26.884Z,7.33
2017-04-21T02:08:38.308Z,7.34
2017-04-21T02:09:49.498Z,7.31
2017-04-21T02:11:00.732Z,7.33
2017-04-21T02:12:11.760Z,7.47
2017-04-21T02:13:22.790Z,7.39
2017-04-21T02:14:33.815Z,7.36
2017-04-21T02:15:44.832Z,7.41
2017-04-21T02:16:56.052Z,7.41
2017-04-21T02:18:07.082Z,7.4
2017-04-21T02:19:18.325Z,7.36
2017-04-21T02:20:29.566Z,7.41
2017-04-21T02:21:40.636Z,7.36
2017-04-21T02:22:51.662Z,7.37
2017-04-21T02:24:02.690Z,7.34
2017-04-21T02:25:13.728Z,7.31
2017-04-21T02:26:24.769Z,7.36
2017-04-21T02:27:35.788Z,7.31
2017-04-21T02:28:46.821Z,7.3
2017-04-21T02:29:57.843Z,7.21
2017-04-21T02:31:08.866Z,7.23
2017-04-21T02:32:19.886Z,7.27
2017-04-21T02:33:30.908Z,7.26
2017-04-21T02:34:41.939Z,7.21
2017-04-21T02:35:53.258Z,7.23
2017-04-21T02:37:04.315Z,7.19
2017-04-21T02:38:15.398Z,7.22
2017-04-21T02:39:26.450Z,7.27
2017-04-21T02:40:37.466Z,7.23
2017-04-21T02:41:48.504Z,7.27
2017-04-21T02:42:59.577Z,7.22
2017-04-21T02:44:10.614Z,7.23
2017-04-21T02:45:21.671Z,7.29
2017-04-21T02:46:32.901Z,7.26
2017-04-21T02:47:43.924Z,7.26
2017-04-21T02:48:54.956Z,7.26
2017-04-21T02:50:05.974Z,7.31
2017-04-21T02:51:16.999Z,7.23
2017-04-21T02:52:28.015Z,7.23
2017-04-21T02:53:39.034Z,7.21
2017-04-21T02:54:50.072Z,7.31
2017-04-21T02:56:01.096Z,7.31
2017-04-21T02:57:12.124Z,7.4
2017-04-21T02:58:23.209Z,7.37
2017-04-21T02:59:34.243Z,7.26
2017-04-21T03:00:45.475Z,7.29
2017-04-21T03:01:56.696Z,7.29
2017-04-21T03:03:07.914Z,7.31
2017-04-21T03:04:19.158Z,7.26
2017-04-21T03:05:30.215Z,7.19
2017-04-21T03:06:41.250Z,7.26
2017-04-21T03:07:52.282Z,7.34
2017-04-21T03:09:03.324Z,7.34
2017-04-21T03:10:14.355Z,7.26
2017-04-21T03:11:25.580Z,7.37
2017-04-21T03:12:36.868Z,7.34
2017-04-21T03:13:47.899Z,7.36
2017-04-21T03:14:58.925Z,7.39
2017-04-21T03:16:09.959Z,7.41
2017-04-21T03:17:20.986Z,7.4
2017-04-21T03:18:32.002Z,7.39
2017-04-21T03:19:43.041Z,7.45
2017-04-21T03:20:54.062Z,7.44
2017-04-21T03:22:05.086Z,7.47
2017-04-21T03:23:16.110Z,7.45
2017-04-21T03:24:27.138Z,7.49
2017-04-21T03:25:38.186Z,7.54
2017-04-21T03:26:49.219Z,7.51
2017-04-21T03:28:00.499Z,7.51
2017-04-21T03:29:11.555Z,7.47
2017-04-21T03:30:22.692Z,7.56
2017-04-21T03:31:34.010Z,7.56
2017-04-21T03:32:45.035Z,7.58
2017-04-21T03:33:56.062Z,7.52
2017-04-21T03:35:07.089Z,7.55
2017-04-21T03:36:18.122Z,7.58
2017-04-21T03:37:29.143Z,7.63
2017-04-21T03:38:40.157Z,7.54
2017-04-21T03:39:51.183Z,7.58
2017-04-21T03:41:02.207Z,7.58
2017-04-21T03:42:13.238Z,7.58
2017-04-21T03:43:24.518Z,7.63
2017-04-21T03:44:35.550Z,7.63
2017-04-21T03:45:46.589Z,7.61
2017-04-21T03:46:57.617Z,7.59
2017-04-21T03:48:08.843Z,7.58
2017-04-21T03:49:19.873Z,7.67
2017-04-21T03:50:30.896Z,7.68
2017-04-21T03:51:41.922Z,7.67
2017-04-21T03:52:52.948Z,7.64
2017-04-21T03:54:04.436Z,7.67
2017-04-21T03:55:15.461Z,7.75
2017-04-21T03:56:26.532Z,7.71
2017-04-21T03:57:37.715Z,7.73
2017-04-21T03:58:48.747Z,7.7
2017-04-21T03:59:59.782Z,7.64
2017-04-21T04:01:10.797Z,7.7
2017-04-21T04:02:21.825Z,7.61
2017-04-21T04:03:33.058Z,7.64
2017-04-21T04:04:44.347Z,7.59
2017-04-21T04:05:55.371Z,7.7
2017-04-21T04:07:06.596Z,7.68
2017-04-21T04:08:17.618Z,7.7
2017-04-21T04:09:28.861Z,7.7
2017-04-21T04:10:39.882Z,7.68
2017-04-21T04:11:50.910Z,7.74
2017-04-21T04:13:01.935Z,7.64
2017-04-21T04:14:12.968Z,7.67
2017-04-21T04:15:23.985Z,7.61
2017-04-21T04:16:35.012Z,7.74
2017-04-21T04:17:46.236Z,7.7
2017-04-21T04:18:57.262Z,7.63
2017-04-21T04:20:08.289Z,7.67
2017-04-21T04:21:19.652Z,7.56
2017-04-21T04:22:30.914Z,7.63
2017-04-21T04:23:41.999Z,7.63
2017-04-21T04:24:53.034Z,7.68
2017-04-21T04:26:04.069Z,7.67
2017-04-21T04:27:15.307Z,7.71
2017-04-21T04:28:26.323Z,7.77
2017-04-21T04:29:37.408Z,7.7
2017-04-21T04:30:48.423Z,7.7
2017-04-21T04:31:59.438Z,7.67
2017-04-21T04:33:10.667Z,7.71
2017-04-21T04:34:21.685Z,7.68
2017-04-21T04:35:32.713Z,7.71
2017-04-21T04:36:43.728Z,7.67
2017-04-21T04:37:54.749Z,7.74
2017-04-21T04:39:05.769Z,7.68
2017-04-21T04:40:16.793Z,7.74
2017-04-21T04:41:28.012Z,7.7
2017-04-21T04:42:39.038Z,7.75
2017-04-21T04:43:50.063Z,7.73
2017-04-21T04:45:01.088Z,7.75
2017-04-21T04:46:12.173Z,7.73
2017-04-21T04:47:23.394Z,7.75
2017-04-21T04:48:34.489Z,7.73
2017-04-21T04:49:45.543Z,7.68
2017-04-21T04:50:56.593Z,7.71
2017-04-21T04:52:07.827Z,7.74
2017-04-21T04:53:19.055Z,7.67
2017-04-21T04:54:30.083Z,7.67
2017-04-21T04:55:41.103Z,7.75
2017-04-21T04:56:52.128Z,7.74
2017-04-21T04:58:03.153Z,7.67
2017-04-21T04:59:14.398Z,7.75
2017-04-21T05:00:25.447Z,7.7
2017-04-21T05:01:36.475Z,7.7
2017-04-21T05:02:47.532Z,7.82
2017-04-21T05:03:58.586Z,7.73
2017-04-21T05:05:09.613Z,7.8
2017-04-21T05:06:20.859Z,7.8
2017-04-21T05:07:31.866Z,7.77
2017-04-21T05:08:42.892Z,7.75
2017-04-21T05:09:53.927Z,7.75
2017-04-21T05:11:05.012Z,7.78
2017-04-21T05:12:16.389Z,7.75
2017-04-21T05:13:27.604Z,7.77
2017-04-21T05:14:38.677Z,7.77
2017-04-21T05:15:49.706Z,7.78
2017-04-21T05:17:00.738Z,7.82
2017-04-21T05:18:11.760Z,7.89
2017-04-21T05:19:22.781Z,7.77
2017-04-21T05:20:33.819Z,7.88
2017-04-21T05:21:44.835Z,7.83
2017-04-21T05:22:55.861Z,7.88
2017-04-21T05:24:06.881Z,7.86
2017-04-21T05:25:17.915Z,7.85
2017-04-21T05:26:28.928Z,7.85
2017-04-21T05:27:40.169Z,7.88
2017-04-21T05:28:51.400Z,7.83
2017-04-21T05:30:02.424Z,7.83
2017-04-21T05:31:13.456Z,7.8
2017-04-21T05:32:24.462Z,7.82
2017-04-21T05:33:35.486Z,7.83
2017-04-21T05:34:46.509Z,7.89
2017-04-21T05:35:57.530Z,7.89
2017-04-21T05:37:08.554Z,7.92
2017-04-21T05:38:19.766Z,7.93
2017-04-21T05:39:30.793Z,7.93
2017-04-21T05:40:41.884Z,7.92
2017-04-21T05:41:53.132Z,7.95
2017-04-21T05:43:04.160Z,7.95
2017-04-21T05:44:15.189Z,7.98
2017-04-21T05:45:26.224Z,7.89
2017-04-21T05:46:37.258Z,7.98
2017-04-21T05:47:48.288Z,7.92
2017-04-21T05:48:59.322Z,8.01
2017-04-21T05:50:10.354Z,7.93
2017-04-21T05:51:21.394Z,7.92
2017-04-21T05:52:32.464Z,8.06
2017-04-21T05:53:43.478Z,7.96
2017-04-21T05:54:54.501Z,8.09
2017-04-21T05:56:05.528Z,8.11
2017-04-21T05:57:16.747Z,8.17
2017-04-21T05:58:27.771Z,8.11
2017-04-21T05:59:38.807Z,8.13
2017-04-21T06:00:49.845Z,8.1
2017-04-21T06:02:00.872Z,8.11
2017-04-21T06:03:11.896Z,8.21
2017-04-21T06:04:22.922Z,8.24
2017-04-21T06:05:33.955Z,8.24
2017-04-21T06:06:45.016Z,8.22
2017-04-21T06:07:56.059Z,8.17
2017-04-21T06:09:07.195Z,8.19
2017-04-21T06:10:18.301Z,8.22
2017-04-21T06:11:29.725Z,8.32
2017-04-21T06:12:40.797Z,8.26
2017-04-21T06:13:51.828Z,8.31
2017-04-21T06:15:02.843Z,8.31
2017-04-21T06:16:13.866Z,8.4
2017-04-21T06:17:24.903Z,8.42
2017-04-21T06:18:35.987Z,8.44
2017-04-21T06:19:47.030Z,8.43
2017-04-21T06:20:58.272Z,8.54
2017-04-21T06:22:09.517Z,8.57
2017-04-21T06:23:20.545Z,8.52
2017-04-21T06:24:31.565Z,8.57
2017-04-21T06:25:42.800Z,8.57
2017-04-21T06:26:54.036Z,8.52
2017-04-21T06:28:05.063Z,8.58
2017-04-21T06:29:16.092Z,8.67
2017-04-21T06:30:27.329Z,8.61
2017-04-21T06:31:38.361Z,8.65
2017-04-21T06:32:49.603Z,8.64
2017-04-21T06:34:01.186Z,8.67
2017-04-21T06:35:12.406Z,8.69
2017-04-21T06:36:23.429Z,8.72
2017-04-21T06:37:34.449Z,8.74
2017-04-21T06:38:45.487Z,8.77
2017-04-21T06:39:56.505Z,8.79
2017-04-21T06:41:07.738Z,8.79
2017-04-21T06:42:18.759Z,8.79
2017-04-21T06:43:29.779Z,8.77
2017-04-21T06:44:40.815Z,8.9
2017-04-21T06:45:51.848Z,8.9
2017-04-21T06:47:02.895Z,8.94
2017-04-21T06:48:13.925Z,8.98
2017-04-21T06:49:25.156Z,8.98
2017-04-21T06:50:36.179Z,9.01
2017-04-21T06:51:47.405Z,8.97
2017-04-21T06:52:58.441Z,9.08
2017-04-21T06:54:09.478Z,9.08
2017-04-21T06:55:20.574Z,9.14
2017-04-21T06:56:31.600Z,9.14
2017-04-21T06:57:42.829Z,9.17
2017-04-21T06:58:53.868Z,9.16
2017-04-21T07:00:05.050Z,9.21
2017-04-21T07:01:16.083Z,9.32
2017-04-21T07:02:27.111Z,9.34
2017-04-21T07:03:38.137Z,9.32
2017-04-21T07:04:49.159Z,9.26
2017-04-21T07:06:00.184Z,9.24
2017-04-21T07:07:11.214Z,9.29
2017-04-21T07:08:22.250Z,9.24
2017-04-21T07:09:33.279Z,9.32
2017-04-21T07:10:44.559Z,9.23
2017-04-21T07:11:55.588Z,9.27
2017-04-21T07:13:06.622Z,9.26
2017-04-21T07:14:17.647Z,9.29
2017-04-21T07:15:28.668Z,9.26
2017-04-21T07:16:39.698Z,9.32
2017-04-21T07:17:50.731Z,9.29
2017-04-21T07:19:01.763Z,9.35
2017-04-21T07:20:12.830Z,9.35
2017-04-21T07:21:23.848Z,9.37
2017-04-21T07:22:35.082Z,9.37
2017-04-21T07:23:46.108Z,9.45
2017-04-21T07:24:57.421Z,9.37
2017-04-21T07:26:08.491Z,9.39
2017-04-21T07:27:19.535Z,9.44
2017-04-21T07:28:30.565Z,9.42
2017-04-21T07:29:41.603Z,9.42
2017-04-21T07:30:52.647Z,9.52
2017-04-21T07:32:03.672Z,9.44
2017-04-21T07:33:14.700Z,9.52
2017-04-21T07:34:25.937Z,9.45
2017-04-21T07:36:06.977Z,9.41
2017-04-21T07:37:18.018Z,9.45
2017-04-21T07:38:29.250Z,9.42
2017-04-21T07:39:49.747Z,9.48
2017-04-21T07:41:00.789Z,9.5
2017-04-21T07:42:12.010Z,9.44
2017-04-21T07:43:22.984Z,9.44
2017-04-21T07:44:34.009Z,9.55
2017-04-21T07:45:45.293Z,9.5
2017-04-21T07:46:56.307Z,9.66
2017-04-21T07:48:07.338Z,9.63
2017-04-21T07:49:18.557Z,9.74
2017-04-21T07:50:29.585Z,9.78
2017-04-21T07:51:40.814Z,9.77
2017-04-21T07:52:52.091Z,9.85
2017-04-21T07:54:03.112Z,9.84
2017-04-21T07:55:14.559Z,9.88
2017-04-21T07:56:25.588Z,9.96
2017-04-21T07:57:36.620Z,9.85
2017-04-21T07:58:47.865Z,10.02
2017-04-21T08:01:55.769Z,10.1
2017-04-21T08:03:06.800Z,10.08
2017-04-21T08:04:17.838Z,10.23
2017-04-21T08:05:28.856Z,10.25
2017-04-21T08:06:39.890Z,10.25
2017-04-21T08:07:50.923Z,10.28
2017-04-21T08:09:02.361Z,10.25
2017-04-21T08:10:13.407Z,10.26
2017-04-21T08:11:24.430Z,10.32
2017-04-21T08:12:35.708Z,10.35
2017-04-21T08:13:46.744Z,10.31
2017-04-21T08:14:57.779Z,10.41
2017-04-21T08:16:08.813Z,10.61
2017-04-21T08:17:20.039Z,10.67
2017-04-21T08:18:31.085Z,10.79
2017-04-21T08:19:42.104Z,11.03
2017-04-21T08:20:53.139Z,11.08
2017-04-21T08:22:04.378Z,11.09
2017-04-21T08:23:15.424Z,11.08
2017-04-21T08:24:26.649Z,11.1
2017-04-21T08:25:37.675Z,11.03
2017-04-21T08:26:48.701Z,11.16
2017-04-21T08:27:59.733Z,11.3
2017-04-21T08:29:10.963Z,11.59
2017-04-21T08:30:22.198Z,12.01
2017-04-21T08:31:33.234Z,12.45
2017-04-21T08:32:44.254Z,12.74
2017-04-21T08:33:55.296Z,12.8
2017-04-21T08:35:06.318Z,12.88
2017-04-21T08:36:17.350Z,12.92
2017-04-21T08:37:28.448Z,12.92
2017-04-21T08:38:39.479Z,12.91
2017-04-21T08:39:50.571Z,13.02
2017-04-21T08:41:01.627Z,13.1
2017-04-21T08:42:12.652Z,13.1
2017-04-21T08:43:23.688Z,13.11
2017-04-21T08:44:34.721Z,12.92
2017-04-21T08:45:45.753Z,13.11
2017-04-21T08:46:56.788Z,13.48
2017-04-21T08:48:08.025Z,13.78
2017-04-21T08:49:19.078Z,13.99
2017-04-21T08:50:30.128Z,13.97
2017-04-21T08:51:41.170Z,13.88
2017-04-21T08:52:52.202Z,13.78
2017-04-21T08:54:03.260Z,13.44
2017-04-21T08:55:14.496Z,13.28
2017-04-21T08:56:25.920Z,12.91
2017-04-21T08:57:36.948Z,12.92
2017-04-21T08:58:48.007Z,13.03
2017-04-21T08:59:59.256Z,13.2
2017-04-21T09:01:10.309Z,13.37
2017-04-21T09:02:21.351Z,13.54
2017-04-21T09:03:32.393Z,13.73
2017-04-21T09:04:43.492Z,13.84
2017-04-21T09:05:54.550Z,13.97
2017-04-21T09:07:05.628Z,14.23
2017-04-21T09:08:16.896Z,14.53
2017-04-21T09:09:27.943Z,14.87
2017-04-21T09:10:39.401Z,14.87
2017-04-21T09:11:50.641Z,14.82
2017-04-21T09:13:02.098Z,14.61
2017-04-21T09:14:13.126Z,14.48
2017-04-21T09:15:24.171Z,14.45
2017-04-21T09:16:35.204Z,14.31
2017-04-21T09:17:46.246Z,14.56
2017-04-21T09:18:57.297Z,14.64
2017-04-21T09:20:08.347Z,14.94
2017-04-21T09:21:19.378Z,14.95
2017-04-21T09:22:30.622Z,14.93
2017-04-21T09:23:41.879Z,14.82
2017-04-21T09:24:53.045Z,14.85
2017-04-21T09:26:04.084Z,14.97
2017-04-21T09:27:15.114Z,15.15
2017-04-21T09:28:26.138Z,15.2
2017-04-21T09:29:37.581Z,15.22
2017-04-21T09:33:31.827Z,15.34
2017-04-21T09:36:25.482Z,15.51
2017-04-21T09:37:36.530Z,15.55
2017-04-21T09:38:47.575Z,15.6
2017-04-21T09:39:58.673Z,15.68
2017-04-21T09:41:10.025Z,15.84
2017-04-21T09:43:45.827Z,15.86
2017-04-21T09:45:11.295Z,15.75
2017-04-21T09:46:22.327Z,15.65
2017-04-21T09:47:33.658Z,15.74
2017-04-21T09:48:44.905Z,15.84
2017-04-21T09:49:55.999Z,15.8
2017-04-21T09:53:31.853Z,15.55
2017-04-21T10:04:41.727Z,15.25
2017-04-21T10:09:52.237Z,14.85
2017-04-21T10:11:03.490Z,14.67
2017-04-21T10:12:14.526Z,14.98
2017-04-21T10:13:25.566Z,15.13
2017-04-21T10:14:36.614Z,15.13
2017-04-21T10:15:47.647Z,15.27
2017-04-21T10:16:58.737Z,15.38
2017-04-21T10:18:09.781Z,15.33
2017-04-21T10:19:21.023Z,15.3
2017-04-21T10:20:32.256Z,15.18
2017-04-21T10:21:43.496Z,14.83
2017-04-21T10:22:54.520Z,14.93
2017-04-21T10:24:05.563Z,14.98
2017-04-21T10:25:16.731Z,15.1
2017-04-21T10:26:27.969Z,15.22
2017-04-21T10:27:39.050Z,15.2
2017-04-21T10:28:50.085Z,15.16
2017-04-21T10:30:01.115Z,15.16
2017-04-21T10:31:12.348Z,15.25
2017-04-21T10:32:23.578Z,15.34
2017-04-21T10:33:34.619Z,15.3
2017-04-21T10:34:45.852Z,15.23
2017-04-21T10:35:56.889Z,15.31
2017-04-21T10:37:07.923Z,15.22
2017-04-21T10:38:19.014Z,15.23
2017-04-21T10:39:30.064Z,15.26
2017-04-21T10:40:41.104Z,15.43
2017-04-21T10:41:52.148Z,15.53
2017-04-21T10:43:03.195Z,15.6
2017-04-21T10:44:14.230Z,15.7
2017-04-21T10:45:25.456Z,15.91
2017-04-21T10:46:36.501Z,15.89
2017-04-21T10:47:47.562Z,15.81
2017-04-21T10:48:58.718Z,15.67
2017-04-21T10:50:09.947Z,15.53
2017-04-21T10:51:21.174Z,15.43
2017-04-21T10:52:32.205Z,15.37
2017-04-21T10:53:43.244Z,15.33
2017-04-21T10:54:54.338Z,15.37
2017-04-21T10:56:05.372Z,15.26
2017-04-21T10:57:16.601Z,15.2
2017-04-21T10:58:27.639Z,15.26
2017-04-21T10:59:38.882Z,15.35
2017-04-21T11:00:49.908Z,15.49
2017-04-21T11:02:01.141Z,15.55
2017-04-21T11:03:12.178Z,15.59
2017-04-21T11:04:23.464Z,15.63
2017-04-21T11:05:34.498Z,15.58
2017-04-21T11:06:45.726Z,15.58
2017-04-21T11:07:56.760Z,15.55
2017-04-21T11:09:07.949Z,15.52
2017-04-21T11:10:18.982Z,15.37
2017-04-21T11:11:30.222Z,15.35
2017-04-21T11:12:41.255Z,15.23
2017-04-21T11:13:52.296Z,15.34
2017-04-21T11:15:03.585Z,15.19
2017-04-21T11:16:14.604Z,15.3
2017-04-21T11:17:25.634Z,15.34
2017-04-21T11:18:36.866Z,15.31
2017-04-21T11:19:47.904Z,15.43
2017-04-21T11:20:58.935Z,15.52
2017-04-21T11:22:10.367Z,15.53
2017-04-21T11:23:21.398Z,15.41
2017-04-21T11:24:32.428Z,15.3
2017-04-21T11:25:43.505Z,15.26
2017-04-21T11:26:54.527Z,15.2
2017-04-21T11:28:05.558Z,15.22
2017-04-21T11:29:16.599Z,15.16
2017-04-21T11:30:27.630Z,15.18
2017-04-21T11:31:38.646Z,15.18
2017-04-21T11:32:50.155Z,15.19
2017-04-21T11:34:01.195Z,15.18
2017-04-21T11:35:12.223Z,15.18
2017-04-21T11:36:23.239Z,15.16
2017-04-21T11:37:34.517Z,15.15
2017-04-21T11:38:45.758Z,15.15
2017-04-21T11:39:56.787Z,15.16
2017-04-21T11:41:08.209Z,15.1
2017-04-21T11:42:19.449Z,15.18
2017-04-21T11:43:30.484Z,14.94
2017-04-21T11:44:41.709Z,14.86
2017-04-21T11:45:52.936Z,14.89
2017-04-21T11:47:04.014Z,14.85
2017-04-21T11:48:15.041Z,14.86
2017-04-21T11:49:26.072Z,14.89
2017-04-21T11:50:37.294Z,14.83
2017-04-21T11:51:48.313Z,14.86
2017-04-21T11:52:59.559Z,14.93
2017-04-21T11:54:10.589Z,14.83
2017-04-21T11:55:21.748Z,14.82
2017-04-21T11:56:33.136Z,14.7
2017-04-21T11:57:44.219Z,14.79
2017-04-21T11:58:55.447Z,14.86
2017-04-21T12:00:06.674Z,14.85
2017-04-21T12:01:17.703Z,14.95
2017-04-21T12:02:28.725Z,14.97
2017-04-21T12:03:39.751Z,15.13
2017-04-21T12:04:50.792Z,15.18
2017-04-21T12:06:02.026Z,15.05
2017-04-21T12:07:13.066Z,15.13
2017-04-21T12:08:24.104Z,15.15
2017-04-21T12:09:35.329Z,15.16
2017-04-21T12:10:46.361Z,15.2
2017-04-21T12:11:57.380Z,15.13
2017-04-21T12:13:08.611Z,15.19
2017-04-21T12:14:19.648Z,15.18
2017-04-21T12:15:30.684Z,15.23
2017-04-21T12:16:42.107Z,15.1
2017-04-21T12:17:53.152Z,15.1
2017-04-21T12:19:04.442Z,15.01
2017-04-21T12:20:15.679Z,15.12
2017-04-21T12:21:26.706Z,15.19
2017-04-21T12:22:37.943Z,15.23
2017-04-21T12:23:49.178Z,15.27
2017-04-21T12:25:00.216Z,15.23
2017-04-21T12:26:11.242Z,15.23
2017-04-21T12:27:22.270Z,15.27
2017-04-21T12:28:33.299Z,15.26
2017-04-21T12:29:44.378Z,15.3
2017-04-21T12:30:55.619Z,15.23
2017-04-21T12:32:06.647Z,15.15
2017-04-21T12:33:17.675Z,15.33
2017-04-21T12:34:28.704Z,15.33
2017-04-21T12:35:39.751Z,15.26
2017-04-21T12:36:50.979Z,15.18
2017-04-21T12:38:02.014Z,15.22
2017-04-21T12:39:13.048Z,15.26
2017-04-21T12:40:24.334Z,15.2
2017-04-21T12:41:35.390Z,15.16
2017-04-21T12:42:46.418Z,15.16
2017-04-21T12:43:58.094Z,15.15
2017-04-21T12:45:09.488Z,15.02
2017-04-21T12:46:20.511Z,15.22
2017-04-21T12:47:31.548Z,15.18
2017-04-21T12:48:42.572Z,15.31
2017-04-21T12:49:53.593Z,15.45
2017-04-21T12:51:04.626Z,15.53
2017-04-21T12:52:15.652Z,15.65
2017-04-21T12:53:26.683Z,15.71
2017-04-21T12:54:37.721Z,15.78
2017-04-21T12:55:48.954Z,15.86
2017-04-21T12:57:00.044Z,15.88
2017-04-21T12:58:11.276Z,15.91
2017-04-21T12:59:22.321Z,15.92
2017-04-21T13:00:33.361Z,16.1
2017-04-21T13:01:44.414Z,16.11
2017-04-21T13:02:55.464Z,16.16
2017-04-21T13:04:06.509Z,16.07
2017-04-21T13:05:17.545Z,16.18
2017-04-21T13:06:28.820Z,16.07
2017-04-21T13:07:39.954Z,16.07
2017-04-21T13:08:51.182Z,16.02
2017-04-21T13:10:02.218Z,15.96
2017-04-21T13:11:13.446Z,16.04
2017-04-21T13:12:24.485Z,15.98
2017-04-21T13:13:35.525Z,15.95
2017-04-21T13:14:46.568Z,15.92
2017-04-21T13:15:57.599Z,15.74
2017-04-21T13:17:08.634Z,15.77
2017-04-21T13:18:19.656Z,15.63
2017-04-21T13:19:30.887Z,15.58
2017-04-21T13:20:41.918Z,15.58
2017-04-21T13:21:53.023Z,15.65
2017-04-21T13:23:04.060Z,15.65
2017-04-21T13:24:15.100Z,15.56
2017-04-21T13:25:26.336Z,15.62
2017-04-21T13:26:37.769Z,15.52
2017-04-21T13:27:48.998Z,15.58
2017-04-21T13:29:00.030Z,15.49
2017-04-21T13:30:11.064Z,15.41
2017-04-21T13:31:22.305Z,15.43
2017-04-21T13:32:33.538Z,15.34
2017-04-21T13:33:44.668Z,15.38
2017-04-21T13:34:55.709Z,15.34
2017-04-21T13:36:06.732Z,15.34
2017-04-21T13:37:17.969Z,15.45
2017-04-21T13:38:29.197Z,15.31
2017-04-21T13:39:40.233Z,15.34
2017-04-21T13:40:51.273Z,15.44
2017-04-21T13:42:02.494Z,15.47
2017-04-21T13:43:13.727Z,15.51
2017-04-21T13:44:24.969Z,15.44
2017-04-21T13:45:36.209Z,15.55
2017-04-21T13:46:47.237Z,15.55
2017-04-21T13:47:58.282Z,15.59
2017-04-21T13:49:09.309Z,15.62
2017-04-21T13:50:20.356Z,15.45
2017-04-21T13:51:31.383Z,15.4
2017-04-21T13:52:42.439Z,15.47
2017-04-21T13:53:53.863Z,15.41
2017-04-21T13:55:04.894Z,15.51
2017-04-21T13:56:15.913Z,15.51
2017-04-21T13:57:26.932Z,15.44
2017-04-21T13:58:37.964Z,15.49
2017-04-21T13:59:48.993Z,15.45
2017-04-21T14:01:00.007Z,15.55
2017-04-21T14:02:11.037Z,15.43
2017-04-21T14:03:22.393Z,15.56
2017-04-21T14:04:33.602Z,15.33
2017-04-21T14:05:44.700Z,15.35
2017-04-21T14:06:55.737Z,15.33
2017-04-21T14:08:07.024Z,15.33
2017-04-21T14:09:18.058Z,15.3
2017-04-21T14:10:29.308Z,15.26
2017-04-21T14:11:40.343Z,15.31
2017-04-21T14:12:51.372Z,15.26
2017-04-21T14:14:02.610Z,15.33
2017-04-21T14:15:13.649Z,15.33
2017-04-21T14:16:24.675Z,15.31
2017-04-21T14:17:35.714Z,15.31
2017-04-21T14:18:46.753Z,15.27
2017-04-21T14:19:57.780Z,15.37
2017-04-21T14:21:09.009Z,15.33
2017-04-21T14:22:20.034Z,15.23
2017-04-21T14:23:31.061Z,15.2
2017-04-21T14:24:42.100Z,15.2
2017-04-21T14:25:53.150Z,15.2
2017-04-21T14:27:04.191Z,15.16
2017-04-21T14:28:15.434Z,15.23
2017-04-21T14:29:26.458Z,15.3
2017-04-21T14:30:37.487Z,15.18
2017-04-21T14:31:48.526Z,15.19
2017-04-21T14:32:59.609Z,15.08
2017-04-21T14:34:10.846Z,15.15
2017-04-21T14:35:21.879Z,15.12
2017-04-21T14:36:32.984Z,15.02
2017-04-21T14:37:44.452Z,15.01
2017-04-21T14:38:55.690Z,14.95
2017-04-21T14:40:06.771Z,14.95
2017-04-21T14:41:18.002Z,14.89
2017-04-21T14:42:29.248Z,14.85
2017-04-21T14:43:40.276Z,14.85
2017-04-21T14:44:51.308Z,14.95
2017-04-21T14:46:02.350Z,14.94
2017-04-21T14:47:13.380Z,14.93
2017-04-21T14:48:24.607Z,14.98
2017-04-21T14:49:35.686Z,14.95
2017-04-21T14:50:46.717Z,14.95
2017-04-21T14:51:57.740Z,14.82
2017-04-21T14:53:08.764Z,14.89
2017-04-21T14:54:19.815Z,14.83
2017-04-21T14:55:31.043Z,14.87
2017-04-21T14:56:42.073Z,14.95
2017-04-21T14:57:53.322Z,14.93
2017-04-21T14:59:04.345Z,14.97
2017-04-21T15:00:15.419Z,15
2017-04-21T15:01:26.748Z,15.04
2017-04-21T15:02:37.787Z,15.02
2017-04-21T15:03:49.511Z,15.07
2017-04-21T15:05:00.540Z,15.12
2017-04-21T15:06:11.593Z,15.18
2017-04-21T15:07:22.623Z,15.18
2017-04-21T15:08:33.647Z,15.16
2017-04-21T15:09:45.114Z,15.16
2017-04-21T15:10:56.142Z,15.18
2017-04-21T15:12:07.186Z,15.19
2017-04-21T15:13:18.219Z,15.15
2017-04-21T15:14:29.244Z,15.1
2017-04-21T15:15:40.346Z,15.19
2017-04-21T15:16:51.578Z,15.15
2017-04-21T15:18:02.624Z,15.18
2017-04-21T15:19:13.661Z,15.15
2017-04-21T15:20:24.686Z,15.12
2017-04-21T15:21:35.710Z,14.97
2017-04-21T15:22:46.732Z,14.98
2017-04-21T15:23:57.971Z,14.94
2017-04-21T15:25:09.002Z,14.95
2017-04-21T15:26:20.039Z,15.01
2017-04-21T15:27:31.065Z,14.93
2017-04-21T15:28:42.093Z,14.98
2017-04-21T15:29:53.128Z,14.97
2017-04-21T15:31:04.208Z,15.01
2017-04-21T15:32:15.231Z,14.93
2017-04-21T15:33:26.263Z,14.98
2017-04-21T15:34:37.319Z,14.93
2017-04-21T15:35:48.347Z,15.01
2017-04-21T15:36:59.452Z,14.97
2017-04-21T15:38:10.638Z,15.01
2017-04-21T15:39:21.871Z,15
2017-04-21T15:40:32.905Z,14.93
2017-04-21T15:41:43.929Z,15.02
2017-04-21T15:42:54.950Z,15.05
2017-04-21T15:44:06.176Z,14.94
2017-04-21T15:45:17.206Z,14.98
2017-04-21T15:46:28.455Z,15.15
2017-04-21T15:47:39.494Z,15.08
2017-04-21T15:48:50.521Z,15.18
2017-04-21T15:50:01.589Z,15.16
2017-04-21T15:51:12.811Z,15.16
2017-04-21T15:52:23.848Z,15.12
2017-04-21T15:53:34.889Z,15.19
2017-04-21T15:54:45.919Z,15.15
2017-04-21T15:55:57.154Z,15.13
2017-04-21T15:57:08.180Z,15.18
2017-04-21T15:58:19.204Z,15.04
2017-04-21T15:59:30.444Z,15.08